sensor_id;sensor_type;location;lat;lon;timestamp;P1;durP1;ratioP1;P2;durP2;ratioP2
80332;SDS011;69652;51.864;-2.246;2023-12-29T00:01:54;18.45;;;4.15;;
80332;SDS011;69652;51.864;-2.246;2023-12-29T00:04:20;21.83;;;4.55;;
80332;SDS011;69652;51.864;-2.246;2023-12-29T00:06:45;20.20;;;2.80;;
80332;SDS011;69652;51.864;-2.246;2023-12-29T00:09:11;20.60;;;3.85;;
80332;SDS011;69652;51.864;-2.246;2023-12-29T00:11:37;18.05;;;3.03;;
80332;SDS011;69652;51.864;-2.246;2023-12-29T00:14:03;16.95;;;3.17;;
80332;SDS011;69652;51.864;-2.246;2023-12-29T00:16:28;19.08;;;3.50;;
80332;SDS011;69652;51.864;-2.246;2023-12-29T00:18:54;16.70;;;3.38;;
80332;SDS011;69652;51.864;-2.246;2023-12-29T00:21:20;28.45;;;3.50;;
80332;SDS011;69652;51.864;-2.246;2023-12-29T00:23:46;15.95;;;4.15;;
80332;SDS011;69652;51.864;-2.246;2023-12-29T00:26:12;15.63;;;3.67;;
80332;SDS011;69652;51.864;-2.246;2023-12-29T00:28:37;22.50;;;3.72;;
80332;SDS011;69652;51.864;-2.246;2023-12-29T00:31:06;15.63;;;3.20;;
80332;SDS011;69652;51.864;-2.246;2023-12-29T00:33:32;18.33;;;3.53;;
80332;SDS011;69652;51.864;-2.246;2023-12-29T00:35:57;18.63;;;2.90;;
80332;SDS011;69652;51.864;-2.246;2023-12-29T00:38:24;15.85;;;2.83;;
80332;SDS011;69652;51.864;-2.246;2023-12-29T00:40:51;17.75;;;3.22;;
80332;SDS011;69652;51.864;-2.246;2023-12-29T00:43:17;15.95;;;2.67;;
80332;SDS011;69652;51.864;-2.246;2023-12-29T00:45:42;13.00;;;2.72;;
80332;SDS011;69652;51.864;-2.246;2023-12-29T00:48:08;19.65;;;2.55;;
80332;SDS011;69652;51.864;-2.246;2023-12-29T00:50:34;18.33;;;2.90;;
80332;SDS011;69652;51.864;-2.246;2023-12-29T00:53:00;14.40;;;3.55;;
80332;SDS011;69652;51.864;-2.246;2023-12-29T00:55:25;18.33;;;2.78;;
80332;SDS011;69652;51.864;-2.246;2023-12-29T00:57:51;12.82;;;2.80;;
80332;SDS011;69652;51.864;-2.246;2023-12-29T01:00:17;11.45;;;2.38;;
80332;SDS011;69652;51.864;-2.246;2023-12-29T01:02:42;10.65;;;2.42;;
80332;SDS011;69652;51.864;-2.246;2023-12-29T01:05:08;15.55;;;2.55;;
80332;SDS011;69652;51.864;-2.246;2023-12-29T01:07:33;8.15;;;1.95;;
80332;SDS011;69652;51.864;-2.246;2023-12-29T01:09:59;11.32;;;2.00;;
80332;SDS011;69652;51.864;-2.246;2023-12-29T01:12:26;6.53;;;1.52;;
80332;SDS011;69652;51.864;-2.246;2023-12-29T01:14:51;10.55;;;2.58;;
80332;SDS011;69652;51.864;-2.246;2023-12-29T01:17:17;10.02;;;1.70;;
80332;SDS011;69652;51.864;-2.246;2023-12-29T01:19:42;7.85;;;1.67;;
80332;SDS011;69652;51.864;-2.246;2023-12-29T01:22:08;5.20;;;1.80;;
80332;SDS011;69652;51.864;-2.246;2023-12-29T01:24:33;6.43;;;1.20;;
80332;SDS011;69652;51.864;-2.246;2023-12-29T01:26:59;2.55;;;1.08;;
80332;SDS011;69652;51.864;-2.246;2023-12-29T01:29:24;6.80;;;1.25;;
80332;SDS011;69652;51.864;-2.246;2023-12-29T01:31:50;5.25;;;1.33;;
80332;SDS011;69652;51.864;-2.246;2023-12-29T01:34:15;6.05;;;1.60;;
80332;SDS011;69652;51.864;-2.246;2023-12-29T01:36:41;6.60;;;1.15;;
80332;SDS011;69652;51.864;-2.246;2023-12-29T01:39:06;6.63;;;1.75;;
80332;SDS011;69652;51.864;-2.246;2023-12-29T01:41:32;4.93;;;1.40;;
80332;SDS011;69652;51.864;-2.246;2023-12-29T01:46:42;8.73;;;1.48;;
80332;SDS011;69652;51.864;-2.246;2023-12-29T01:49:07;6.20;;;1.58;;
80332;SDS011;69652;51.864;-2.246;2023-12-29T01:51:33;8.73;;;1.73;;
80332;SDS011;69652;51.864;-2.246;2023-12-29T01:53:59;6.07;;;1.52;;
80332;SDS011;69652;51.864;-2.246;2023-12-29T01:56:25;9.57;;;1.88;;
80332;SDS011;69652;51.864;-2.246;2023-12-29T01:58:51;13.95;;;2.13;;
80332;SDS011;69652;51.864;-2.246;2023-12-29T02:01:17;9.30;;;1.60;;
80332;SDS011;69652;51.864;-2.246;2023-12-29T02:03:46;6.63;;;1.92;;
80332;SDS011;69652;51.864;-2.246;2023-12-29T02:06:13;14.15;;;2.15;;
80332;SDS011;69652;51.864;-2.246;2023-12-29T02:08:40;11.80;;;2.38;;
80332;SDS011;69652;51.864;-2.246;2023-12-29T02:11:05;13.55;;;3.17;;
80332;SDS011;69652;51.864;-2.246;2023-12-29T02:13:31;10.73;;;2.25;;
80332;SDS011;69652;51.864;-2.246;2023-12-29T02:15:58;12.55;;;2.65;;
80332;SDS011;69652;51.864;-2.246;2023-12-29T02:18:31;10.30;;;2.47;;
80332;SDS011;69652;51.864;-2.246;2023-12-29T02:20:59;12.25;;;2.42;;
80332;SDS011;69652;51.864;-2.246;2023-12-29T02:23:28;19.55;;;2.63;;
80332;SDS011;69652;51.864;-2.246;2023-12-29T02:25:54;11.80;;;2.03;;
80332;SDS011;69652;51.864;-2.246;2023-12-29T02:28:24;13.48;;;2.10;;
80332;SDS011;69652;51.864;-2.246;2023-12-29T02:30:56;12.75;;;1.92;;
80332;SDS011;69652;51.864;-2.246;2023-12-29T02:33:31;14.90;;;3.53;;
80332;SDS011;69652;51.864;-2.246;2023-12-29T02:36:01;18.63;;;2.42;;
80332;SDS011;69652;51.864;-2.246;2023-12-29T02:38:28;14.55;;;2.88;;
80332;SDS011;69652;51.864;-2.246;2023-12-29T02:40:54;13.85;;;2.15;;
80332;SDS011;69652;51.864;-2.246;2023-12-29T02:43:21;13.15;;;2.15;;
80332;SDS011;69652;51.864;-2.246;2023-12-29T02:45:46;17.38;;;3.03;;
80332;SDS011;69652;51.864;-2.246;2023-12-29T02:48:12;14.98;;;3.17;;
80332;SDS011;69652;51.864;-2.246;2023-12-29T02:50:37;18.15;;;2.70;;
80332;SDS011;69652;51.864;-2.246;2023-12-29T02:53:03;17.73;;;2.80;;
80332;SDS011;69652;51.864;-2.246;2023-12-29T02:55:29;11.63;;;2.45;;
80332;SDS011;69652;51.864;-2.246;2023-12-29T02:57:54;15.90;;;2.67;;
80332;SDS011;69652;51.864;-2.246;2023-12-29T03:00:20;17.42;;;3.20;;
80332;SDS011;69652;51.864;-2.246;2023-12-29T03:02:46;14.90;;;2.83;;
80332;SDS011;69652;51.864;-2.246;2023-12-29T03:05:11;9.73;;;2.50;;
80332;SDS011;69652;51.864;-2.246;2023-12-29T03:07:37;15.35;;;3.08;;
80332;SDS011;69652;51.864;-2.246;2023-12-29T03:10:04;10.45;;;2.10;;
80332;SDS011;69652;51.864;-2.246;2023-12-29T03:12:30;11.52;;;2.53;;
80332;SDS011;69652;51.864;-2.246;2023-12-29T03:14:56;13.05;;;2.83;;
80332;SDS011;69652;51.864;-2.246;2023-12-29T03:17:21;15.82;;;2.25;;
80332;SDS011;69652;51.864;-2.246;2023-12-29T03:19:47;11.73;;;1.92;;
80332;SDS011;69652;51.864;-2.246;2023-12-29T03:22:13;7.88;;;1.77;;
80332;SDS011;69652;51.864;-2.246;2023-12-29T03:24:40;7.90;;;1.80;;
80332;SDS011;69652;51.864;-2.246;2023-12-29T03:27:06;12.20;;;1.83;;
80332;SDS011;69652;51.864;-2.246;2023-12-29T03:29:32;9.27;;;1.77;;
80332;SDS011;69652;51.864;-2.246;2023-12-29T03:31:57;7.00;;;1.55;;
80332;SDS011;69652;51.864;-2.246;2023-12-29T03:34:23;8.68;;;2.08;;
80332;SDS011;69652;51.864;-2.246;2023-12-29T03:36:49;10.45;;;1.90;;
80332;SDS011;69652;51.864;-2.246;2023-12-29T03:39:14;8.15;;;2.30;;
80332;SDS011;69652;51.864;-2.246;2023-12-29T03:41:40;15.25;;;3.58;;
80332;SDS011;69652;51.864;-2.246;2023-12-29T03:44:05;14.38;;;2.72;;
80332;SDS011;69652;51.864;-2.246;2023-12-29T03:46:31;9.23;;;2.10;;
80332;SDS011;69652;51.864;-2.246;2023-12-29T03:48:57;6.28;;;1.83;;
80332;SDS011;69652;51.864;-2.246;2023-12-29T03:51:23;9.05;;;2.10;;
80332;SDS011;69652;51.864;-2.246;2023-12-29T03:53:49;9.73;;;1.73;;
80332;SDS011;69652;51.864;-2.246;2023-12-29T03:56:15;12.25;;;2.30;;
80332;SDS011;69652;51.864;-2.246;2023-12-29T03:58:42;16.40;;;2.70;;
80332;SDS011;69652;51.864;-2.246;2023-12-29T04:01:14;9.25;;;2.58;;
80332;SDS011;69652;51.864;-2.246;2023-12-29T04:03:41;14.65;;;2.72;;
80332;SDS011;69652;51.864;-2.246;2023-12-29T04:06:07;12.90;;;2.85;;
80332;SDS011;69652;51.864;-2.246;2023-12-29T04:08:33;13.45;;;2.25;;
80332;SDS011;69652;51.864;-2.246;2023-12-29T04:11:02;12.45;;;2.10;;
80332;SDS011;69652;51.864;-2.246;2023-12-29T04:13:28;5.60;;;1.65;;
80332;SDS011;69652;51.864;-2.246;2023-12-29T04:15:54;9.60;;;2.20;;
80332;SDS011;69652;51.864;-2.246;2023-12-29T04:18:20;10.18;;;2.05;;
80332;SDS011;69652;51.864;-2.246;2023-12-29T04:20:47;11.60;;;2.40;;
80332;SDS011;69652;51.864;-2.246;2023-12-29T04:23:13;17.48;;;2.47;;
80332;SDS011;69652;51.864;-2.246;2023-12-29T04:25:38;11.38;;;2.00;;
80332;SDS011;69652;51.864;-2.246;2023-12-29T04:28:04;15.82;;;2.00;;
80332;SDS011;69652;51.864;-2.246;2023-12-29T04:30:31;9.23;;;1.85;;
80332;SDS011;69652;51.864;-2.246;2023-12-29T04:32:56;14.43;;;2.63;;
80332;SDS011;69652;51.864;-2.246;2023-12-29T04:35:22;7.97;;;2.22;;
80332;SDS011;69652;51.864;-2.246;2023-12-29T04:37:48;3.63;;;0.98;;
80332;SDS011;69652;51.864;-2.246;2023-12-29T04:40:14;11.20;;;2.08;;
80332;SDS011;69652;51.864;-2.246;2023-12-29T04:42:40;6.75;;;1.60;;
80332;SDS011;69652;51.864;-2.246;2023-12-29T04:45:05;6.20;;;1.30;;
80332;SDS011;69652;51.864;-2.246;2023-12-29T04:47:32;4.88;;;1.48;;
80332;SDS011;69652;51.864;-2.246;2023-12-29T04:49:58;6.07;;;1.45;;
80332;SDS011;69652;51.864;-2.246;2023-12-29T04:52:23;7.05;;;1.40;;
80332;SDS011;69652;51.864;-2.246;2023-12-29T04:54:49;6.10;;;1.48;;
80332;SDS011;69652;51.864;-2.246;2023-12-29T04:57:14;7.63;;;1.40;;
80332;SDS011;69652;51.864;-2.246;2023-12-29T04:59:40;6.93;;;2.08;;
80332;SDS011;69652;51.864;-2.246;2023-12-29T05:02:06;4.18;;;1.33;;
80332;SDS011;69652;51.864;-2.246;2023-12-29T05:04:31;5.10;;;1.42;;
80332;SDS011;69652;51.864;-2.246;2023-12-29T05:06:57;8.70;;;1.98;;
80332;SDS011;69652;51.864;-2.246;2023-12-29T05:09:22;9.95;;;1.90;;
80332;SDS011;69652;51.864;-2.246;2023-12-29T05:11:48;10.23;;;1.80;;
80332;SDS011;69652;51.864;-2.246;2023-12-29T05:14:14;5.47;;;1.65;;
80332;SDS011;69652;51.864;-2.246;2023-12-29T05:16:43;9.88;;;1.33;;
80332;SDS011;69652;51.864;-2.246;2023-12-29T05:19:09;7.00;;;1.75;;
80332;SDS011;69652;51.864;-2.246;2023-12-29T05:21:34;12.38;;;1.55;;
80332;SDS011;69652;51.864;-2.246;2023-12-29T05:24:00;4.75;;;1.23;;
80332;SDS011;69652;51.864;-2.246;2023-12-29T05:26:25;8.43;;;1.50;;
80332;SDS011;69652;51.864;-2.246;2023-12-29T05:28:51;6.75;;;1.40;;
80332;SDS011;69652;51.864;-2.246;2023-12-29T05:31:17;7.38;;;1.50;;
80332;SDS011;69652;51.864;-2.246;2023-12-29T05:33:43;7.05;;;1.45;;
80332;SDS011;69652;51.864;-2.246;2023-12-29T05:36:09;8.82;;;1.98;;
80332;SDS011;69652;51.864;-2.246;2023-12-29T05:38:36;8.80;;;1.40;;
80332;SDS011;69652;51.864;-2.246;2023-12-29T05:41:03;5.25;;;1.33;;
80332;SDS011;69652;51.864;-2.246;2023-12-29T05:43:32;4.95;;;1.35;;
80332;SDS011;69652;51.864;-2.246;2023-12-29T05:45:59;9.52;;;1.50;;
80332;SDS011;69652;51.864;-2.246;2023-12-29T05:48:24;7.03;;;1.60;;
80332;SDS011;69652;51.864;-2.246;2023-12-29T05:50:50;6.18;;;1.90;;
80332;SDS011;69652;51.864;-2.246;2023-12-29T05:53:16;11.75;;;1.60;;
80332;SDS011;69652;51.864;-2.246;2023-12-29T05:55:43;9.77;;;1.25;;
80332;SDS011;69652;51.864;-2.246;2023-12-29T05:58:09;5.07;;;1.25;;
80332;SDS011;69652;51.864;-2.246;2023-12-29T06:00:35;11.38;;;1.60;;
80332;SDS011;69652;51.864;-2.246;2023-12-29T06:03:01;10.23;;;1.85;;
80332;SDS011;69652;51.864;-2.246;2023-12-29T06:05:29;10.40;;;1.42;;
80332;SDS011;69652;51.864;-2.246;2023-12-29T06:07:54;8.80;;;1.80;;
80332;SDS011;69652;51.864;-2.246;2023-12-29T06:10:20;9.65;;;1.70;;
80332;SDS011;69652;51.864;-2.246;2023-12-29T06:12:46;9.93;;;1.88;;
80332;SDS011;69652;51.864;-2.246;2023-12-29T06:15:12;6.35;;;1.42;;
80332;SDS011;69652;51.864;-2.246;2023-12-29T06:17:39;6.55;;;1.73;;
80332;SDS011;69652;51.864;-2.246;2023-12-29T06:20:06;6.07;;;1.92;;
80332;SDS011;69652;51.864;-2.246;2023-12-29T06:22:32;7.63;;;1.48;;
80332;SDS011;69652;51.864;-2.246;2023-12-29T06:24:58;13.23;;;2.30;;
80332;SDS011;69652;51.864;-2.246;2023-12-29T06:27:24;10.32;;;1.90;;
80332;SDS011;69652;51.864;-2.246;2023-12-29T06:29:50;10.35;;;1.88;;
80332;SDS011;69652;51.864;-2.246;2023-12-29T06:32:16;11.13;;;1.90;;
80332;SDS011;69652;51.864;-2.246;2023-12-29T06:34:41;8.48;;;1.90;;
80332;SDS011;69652;51.864;-2.246;2023-12-29T06:37:07;9.55;;;1.50;;
80332;SDS011;69652;51.864;-2.246;2023-12-29T06:39:33;4.63;;;1.52;;
80332;SDS011;69652;51.864;-2.246;2023-12-29T06:41:58;11.10;;;2.05;;
80332;SDS011;69652;51.864;-2.246;2023-12-29T06:44:24;8.50;;;2.15;;
80332;SDS011;69652;51.864;-2.246;2023-12-29T06:46:49;8.02;;;1.80;;
80332;SDS011;69652;51.864;-2.246;2023-12-29T06:49:15;10.10;;;1.98;;
80332;SDS011;69652;51.864;-2.246;2023-12-29T06:51:40;9.30;;;2.25;;
80332;SDS011;69652;51.864;-2.246;2023-12-29T06:54:06;12.25;;;1.88;;
80332;SDS011;69652;51.864;-2.246;2023-12-29T06:56:32;11.00;;;1.63;;
80332;SDS011;69652;51.864;-2.246;2023-12-29T06:58:57;13.82;;;2.13;;
80332;SDS011;69652;51.864;-2.246;2023-12-29T07:01:23;5.90;;;1.67;;
80332;SDS011;69652;51.864;-2.246;2023-12-29T07:03:49;14.32;;;2.38;;
80332;SDS011;69652;51.864;-2.246;2023-12-29T07:06:15;8.73;;;2.28;;
80332;SDS011;69652;51.864;-2.246;2023-12-29T07:08:41;13.82;;;1.90;;
80332;SDS011;69652;51.864;-2.246;2023-12-29T07:11:10;14.68;;;2.05;;
80332;SDS011;69652;51.864;-2.246;2023-12-29T07:13:37;14.13;;;1.88;;
80332;SDS011;69652;51.864;-2.246;2023-12-29T07:16:03;7.13;;;1.88;;
80332;SDS011;69652;51.864;-2.246;2023-12-29T07:18:29;10.23;;;1.65;;
80332;SDS011;69652;51.864;-2.246;2023-12-29T07:20:54;7.60;;;2.10;;
80332;SDS011;69652;51.864;-2.246;2023-12-29T07:23:20;14.23;;;3.03;;
80332;SDS011;69652;51.864;-2.246;2023-12-29T07:25:46;10.73;;;2.17;;
80332;SDS011;69652;51.864;-2.246;2023-12-29T07:28:12;13.70;;;2.45;;
80332;SDS011;69652;51.864;-2.246;2023-12-29T07:30:38;6.10;;;1.95;;
80332;SDS011;69652;51.864;-2.246;2023-12-29T07:33:04;8.45;;;2.72;;
80332;SDS011;69652;51.864;-2.246;2023-12-29T07:35:30;9.77;;;1.90;;
80332;SDS011;69652;51.864;-2.246;2023-12-29T07:37:55;7.05;;;2.05;;
80332;SDS011;69652;51.864;-2.246;2023-12-29T07:40:21;8.55;;;2.38;;
80332;SDS011;69652;51.864;-2.246;2023-12-29T07:42:47;13.75;;;2.25;;
80332;SDS011;69652;51.864;-2.246;2023-12-29T07:45:15;11.77;;;2.30;;
80332;SDS011;69652;51.864;-2.246;2023-12-29T07:47:41;15.27;;;2.67;;
80332;SDS011;69652;51.864;-2.246;2023-12-29T07:50:07;10.95;;;2.08;;
80332;SDS011;69652;51.864;-2.246;2023-12-29T07:52:32;8.95;;;2.10;;
80332;SDS011;69652;51.864;-2.246;2023-12-29T07:54:58;17.30;;;3.88;;
80332;SDS011;69652;51.864;-2.246;2023-12-29T07:57:24;13.88;;;2.67;;
80332;SDS011;69652;51.864;-2.246;2023-12-29T07:59:49;12.95;;;2.22;;
80332;SDS011;69652;51.864;-2.246;2023-12-29T08:02:15;13.40;;;2.53;;
80332;SDS011;69652;51.864;-2.246;2023-12-29T08:04:41;14.23;;;2.55;;
80332;SDS011;69652;51.864;-2.246;2023-12-29T08:07:07;8.85;;;2.00;;
80332;SDS011;69652;51.864;-2.246;2023-12-29T08:09:33;12.80;;;2.47;;
80332;SDS011;69652;51.864;-2.246;2023-12-29T08:11:58;10.75;;;2.53;;
80332;SDS011;69652;51.864;-2.246;2023-12-29T08:14:25;14.68;;;3.20;;
80332;SDS011;69652;51.864;-2.246;2023-12-29T08:16:51;10.60;;;2.67;;
80332;SDS011;69652;51.864;-2.246;2023-12-29T08:19:16;14.50;;;2.88;;
80332;SDS011;69652;51.864;-2.246;2023-12-29T08:21:42;15.60;;;3.22;;
80332;SDS011;69652;51.864;-2.246;2023-12-29T08:24:08;12.02;;;2.15;;
80332;SDS011;69652;51.864;-2.246;2023-12-29T08:26:33;19.02;;;2.85;;
80332;SDS011;69652;51.864;-2.246;2023-12-29T08:28:59;12.25;;;2.20;;
80332;SDS011;69652;51.864;-2.246;2023-12-29T08:31:24;9.65;;;2.17;;
80332;SDS011;69652;51.864;-2.246;2023-12-29T08:33:51;13.15;;;2.63;;
80332;SDS011;69652;51.864;-2.246;2023-12-29T08:36:20;24.40;;;3.00;;
80332;SDS011;69652;51.864;-2.246;2023-12-29T08:38:46;13.27;;;2.67;;
80332;SDS011;69652;51.864;-2.246;2023-12-29T08:41:13;12.15;;;2.30;;
80332;SDS011;69652;51.864;-2.246;2023-12-29T08:43:39;15.55;;;2.83;;
80332;SDS011;69652;51.864;-2.246;2023-12-29T08:46:05;10.57;;;1.92;;
80332;SDS011;69652;51.864;-2.246;2023-12-29T08:48:30;20.13;;;3.28;;
80332;SDS011;69652;51.864;-2.246;2023-12-29T08:50:56;15.82;;;3.28;;
80332;SDS011;69652;51.864;-2.246;2023-12-29T08:53:21;10.98;;;2.30;;
80332;SDS011;69652;51.864;-2.246;2023-12-29T08:55:47;11.43;;;2.35;;
80332;SDS011;69652;51.864;-2.246;2023-12-29T08:58:12;11.43;;;2.55;;
80332;SDS011;69652;51.864;-2.246;2023-12-29T09:00:38;15.35;;;2.35;;
80332;SDS011;69652;51.864;-2.246;2023-12-29T09:03:05;11.98;;;3.10;;
80332;SDS011;69652;51.864;-2.246;2023-12-29T09:05:31;17.63;;;2.58;;
80332;SDS011;69652;51.864;-2.246;2023-12-29T09:07:56;19.08;;;2.33;;
80332;SDS011;69652;51.864;-2.246;2023-12-29T09:10:22;10.50;;;2.30;;
80332;SDS011;69652;51.864;-2.246;2023-12-29T09:12:48;11.95;;;2.30;;
80332;SDS011;69652;51.864;-2.246;2023-12-29T09:15:14;21.20;;;3.70;;
80332;SDS011;69652;51.864;-2.246;2023-12-29T09:17:40;12.57;;;2.05;;
80332;SDS011;69652;51.864;-2.246;2023-12-29T09:20:06;9.18;;;2.42;;
80332;SDS011;69652;51.864;-2.246;2023-12-29T09:22:33;10.15;;;2.05;;
80332;SDS011;69652;51.864;-2.246;2023-12-29T09:24:58;9.27;;;1.92;;
80332;SDS011;69652;51.864;-2.246;2023-12-29T09:27:24;11.38;;;2.33;;
80332;SDS011;69652;51.864;-2.246;2023-12-29T09:29:50;12.43;;;2.28;;
80332;SDS011;69652;51.864;-2.246;2023-12-29T09:32:16;11.35;;;1.92;;
80332;SDS011;69652;51.864;-2.246;2023-12-29T09:34:41;9.63;;;2.15;;
80332;SDS011;69652;51.864;-2.246;2023-12-29T09:37:07;10.95;;;2.58;;
80332;SDS011;69652;51.864;-2.246;2023-12-29T09:39:33;11.55;;;2.10;;
80332;SDS011;69652;51.864;-2.246;2023-12-29T09:41:59;9.32;;;2.60;;
80332;SDS011;69652;51.864;-2.246;2023-12-29T09:44:28;9.80;;;2.25;;
80332;SDS011;69652;51.864;-2.246;2023-12-29T09:46:57;9.85;;;2.85;;
80332;SDS011;69652;51.864;-2.246;2023-12-29T09:49:27;8.05;;;1.67;;
80332;SDS011;69652;51.864;-2.246;2023-12-29T09:51:55;7.22;;;1.83;;
80332;SDS011;69652;51.864;-2.246;2023-12-29T09:54:23;8.57;;;1.70;;
80332;SDS011;69652;51.864;-2.246;2023-12-29T09:56:50;12.50;;;2.55;;
80332;SDS011;69652;51.864;-2.246;2023-12-29T09:59:16;7.75;;;1.88;;
80332;SDS011;69652;51.864;-2.246;2023-12-29T10:01:42;6.50;;;1.90;;
80332;SDS011;69652;51.864;-2.246;2023-12-29T10:04:11;7.25;;;1.60;;
80332;SDS011;69652;51.864;-2.246;2023-12-29T10:06:37;7.30;;;1.75;;
80332;SDS011;69652;51.864;-2.246;2023-12-29T10:09:05;5.55;;;1.65;;
80332;SDS011;69652;51.864;-2.246;2023-12-29T10:11:36;7.22;;;1.33;;
80332;SDS011;69652;51.864;-2.246;2023-12-29T10:14:05;9.40;;;1.48;;
80332;SDS011;69652;51.864;-2.246;2023-12-29T10:16:43;5.05;;;1.75;;
80332;SDS011;69652;51.864;-2.246;2023-12-29T10:21:48;4.25;;;1.30;;
80332;SDS011;69652;51.864;-2.246;2023-12-29T10:24:22;5.15;;;1.02;;
80332;SDS011;69652;51.864;-2.246;2023-12-29T10:26:48;9.77;;;1.13;;
80332;SDS011;69652;51.864;-2.246;2023-12-29T10:29:15;7.78;;;1.42;;
80332;SDS011;69652;51.864;-2.246;2023-12-29T10:31:43;7.30;;;1.50;;
80332;SDS011;69652;51.864;-2.246;2023-12-29T10:34:22;8.90;;;1.63;;
80332;SDS011;69652;51.864;-2.246;2023-12-29T10:36:58;7.57;;;1.65;;
80332;SDS011;69652;51.864;-2.246;2023-12-29T10:39:24;7.47;;;1.60;;
80332;SDS011;69652;51.864;-2.246;2023-12-29T10:42:02;7.47;;;1.40;;
80332;SDS011;69652;51.864;-2.246;2023-12-29T10:44:30;2.90;;;1.33;;
80332;SDS011;69652;51.864;-2.246;2023-12-29T10:46:55;6.80;;;1.52;;
80332;SDS011;69652;51.864;-2.246;2023-12-29T10:49:21;5.40;;;1.40;;
80332;SDS011;69652;51.864;-2.246;2023-12-29T10:51:46;8.23;;;1.70;;
80332;SDS011;69652;51.864;-2.246;2023-12-29T10:54:18;5.47;;;1.50;;
80332;SDS011;69652;51.864;-2.246;2023-12-29T10:56:59;6.22;;;1.50;;
80332;SDS011;69652;51.864;-2.246;2023-12-29T10:59:26;5.75;;;1.60;;
80332;SDS011;69652;51.864;-2.246;2023-12-29T11:01:52;5.40;;;1.45;;
80332;SDS011;69652;51.864;-2.246;2023-12-29T11:04:21;5.70;;;2.15;;
80332;SDS011;69652;51.864;-2.246;2023-12-29T11:06:47;5.85;;;1.70;;
80332;SDS011;69652;51.864;-2.246;2023-12-29T11:09:37;4.38;;;1.55;;
80332;SDS011;69652;51.864;-2.246;2023-12-29T11:12:02;6.07;;;2.17;;
80332;SDS011;69652;51.864;-2.246;2023-12-29T11:14:32;6.32;;;2.10;;
80332;SDS011;69652;51.864;-2.246;2023-12-29T11:16:58;6.22;;;2.58;;
80332;SDS011;69652;51.864;-2.246;2023-12-29T11:19:25;10.70;;;3.38;;
80332;SDS011;69652;51.864;-2.246;2023-12-29T11:21:52;10.40;;;3.10;;
80332;SDS011;69652;51.864;-2.246;2023-12-29T11:24:19;10.98;;;2.55;;
80332;SDS011;69652;51.864;-2.246;2023-12-29T11:26:45;5.25;;;1.92;;
80332;SDS011;69652;51.864;-2.246;2023-12-29T11:29:11;8.75;;;2.63;;
80332;SDS011;69652;51.864;-2.246;2023-12-29T11:31:37;9.68;;;2.80;;
80332;SDS011;69652;51.864;-2.246;2023-12-29T11:37:26;7.82;;;2.17;;
80332;SDS011;69652;51.864;-2.246;2023-12-29T11:40:23;8.68;;;2.50;;
80332;SDS011;69652;51.864;-2.246;2023-12-29T11:42:54;6.53;;;2.33;;
80332;SDS011;69652;51.864;-2.246;2023-12-29T11:45:29;10.95;;;2.22;;
80332;SDS011;69652;51.864;-2.246;2023-12-29T11:48:02;6.55;;;1.67;;
80332;SDS011;69652;51.864;-2.246;2023-12-29T11:50:35;5.32;;;1.70;;
80332;SDS011;69652;51.864;-2.246;2023-12-29T11:53:03;5.43;;;1.60;;
80332;SDS011;69652;51.864;-2.246;2023-12-29T11:55:38;4.85;;;1.75;;
80332;SDS011;69652;51.864;-2.246;2023-12-29T11:58:05;5.35;;;1.80;;
80332;SDS011;69652;51.864;-2.246;2023-12-29T12:00:49;9.35;;;2.92;;
80332;SDS011;69652;51.864;-2.246;2023-12-29T12:03:16;9.95;;;2.85;;
80332;SDS011;69652;51.864;-2.246;2023-12-29T12:05:44;8.77;;;3.38;;
80332;SDS011;69652;51.864;-2.246;2023-12-29T12:08:26;9.38;;;1.92;;
80332;SDS011;69652;51.864;-2.246;2023-12-29T12:14:04;4.93;;;1.60;;
80332;SDS011;69652;51.864;-2.246;2023-12-29T12:19:11;6.78;;;1.90;;
80332;SDS011;69652;51.864;-2.246;2023-12-29T12:21:37;3.75;;;1.48;;
80332;SDS011;69652;51.864;-2.246;2023-12-29T12:24:04;5.20;;;1.38;;
80332;SDS011;69652;51.864;-2.246;2023-12-29T12:26:30;6.53;;;1.30;;
80332;SDS011;69652;51.864;-2.246;2023-12-29T12:28:57;3.25;;;1.35;;
80332;SDS011;69652;51.864;-2.246;2023-12-29T12:31:23;4.57;;;1.15;;
80332;SDS011;69652;51.864;-2.246;2023-12-29T12:33:53;4.30;;;1.33;;
80332;SDS011;69652;51.864;-2.246;2023-12-29T12:36:20;2.97;;;1.08;;
80332;SDS011;69652;51.864;-2.246;2023-12-29T12:38:53;4.22;;;1.40;;
80332;SDS011;69652;51.864;-2.246;2023-12-29T12:41:22;6.43;;;1.95;;
80332;SDS011;69652;51.864;-2.246;2023-12-29T12:44:11;4.28;;;1.70;;
80332;SDS011;69652;51.864;-2.246;2023-12-29T12:46:41;4.70;;;1.75;;
80332;SDS011;69652;51.864;-2.246;2023-12-29T12:49:22;7.43;;;1.50;;
80332;SDS011;69652;51.864;-2.246;2023-12-29T12:51:48;5.47;;;1.45;;
80332;SDS011;69652;51.864;-2.246;2023-12-29T12:54:17;7.82;;;4.13;;
80332;SDS011;69652;51.864;-2.246;2023-12-29T12:56:44;8.38;;;3.08;;
80332;SDS011;69652;51.864;-2.246;2023-12-29T12:59:10;6.40;;;1.85;;
80332;SDS011;69652;51.864;-2.246;2023-12-29T13:01:37;4.28;;;1.25;;
80332;SDS011;69652;51.864;-2.246;2023-12-29T13:04:03;7.28;;;1.88;;
80332;SDS011;69652;51.864;-2.246;2023-12-29T13:06:31;7.25;;;2.80;;
80332;SDS011;69652;51.864;-2.246;2023-12-29T13:09:05;2.60;;;1.30;;
80332;SDS011;69652;51.864;-2.246;2023-12-29T13:11:36;7.30;;;1.40;;
80332;SDS011;69652;51.864;-2.246;2023-12-29T13:14:02;6.68;;;1.20;;
80332;SDS011;69652;51.864;-2.246;2023-12-29T13:16:30;4.15;;;1.40;;
80332;SDS011;69652;51.864;-2.246;2023-12-29T13:18:57;2.45;;;1.20;;
80332;SDS011;69652;51.864;-2.246;2023-12-29T13:21:23;2.95;;;0.95;;
80332;SDS011;69652;51.864;-2.246;2023-12-29T13:23:49;3.13;;;1.13;;
80332;SDS011;69652;51.864;-2.246;2023-12-29T13:26:15;3.25;;;1.20;;
80332;SDS011;69652;51.864;-2.246;2023-12-29T13:28:43;5.65;;;1.50;;
80332;SDS011;69652;51.864;-2.246;2023-12-29T13:31:11;3.13;;;1.15;;
80332;SDS011;69652;51.864;-2.246;2023-12-29T13:39:07;2.35;;;1.00;;
80332;SDS011;69652;51.864;-2.246;2023-12-29T13:41:46;4.30;;;1.40;;
80332;SDS011;69652;51.864;-2.246;2023-12-29T13:44:13;4.15;;;1.30;;
80332;SDS011;69652;51.864;-2.246;2023-12-29T13:46:40;3.85;;;1.38;;
80332;SDS011;69652;51.864;-2.246;2023-12-29T13:49:06;5.90;;;1.20;;
80332;SDS011;69652;51.864;-2.246;2023-12-29T13:51:34;4.93;;;1.08;;
80332;SDS011;69652;51.864;-2.246;2023-12-29T13:54:00;3.55;;;1.48;;
80332;SDS011;69652;51.864;-2.246;2023-12-29T13:56:27;2.28;;;1.27;;
80332;SDS011;69652;51.864;-2.246;2023-12-29T13:58:53;4.05;;;1.30;;
80332;SDS011;69652;51.864;-2.246;2023-12-29T14:01:19;3.28;;;1.55;;
80332;SDS011;69652;51.864;-2.246;2023-12-29T14:03:54;2.75;;;1.17;;
80332;SDS011;69652;51.864;-2.246;2023-12-29T14:06:27;3.08;;;1.13;;
80332;SDS011;69652;51.864;-2.246;2023-12-29T14:09:06;4.35;;;1.23;;
80332;SDS011;69652;51.864;-2.246;2023-12-29T14:11:31;3.15;;;1.35;;
80332;SDS011;69652;51.864;-2.246;2023-12-29T14:13:58;5.22;;;1.80;;
80332;SDS011;69652;51.864;-2.246;2023-12-29T14:16:23;7.90;;;2.58;;
80332;SDS011;69652;51.864;-2.246;2023-12-29T14:18:52;5.70;;;1.60;;
80332;SDS011;69652;51.864;-2.246;2023-12-29T14:21:29;5.60;;;2.17;;
80332;SDS011;69652;51.864;-2.246;2023-12-29T14:24:11;6.90;;;2.17;;
80332;SDS011;69652;51.864;-2.246;2023-12-29T14:26:38;4.53;;;1.75;;
80332;SDS011;69652;51.864;-2.246;2023-12-29T14:29:12;9.55;;;2.60;;
80332;SDS011;69652;51.864;-2.246;2023-12-29T14:31:38;7.35;;;1.88;;
80332;SDS011;69652;51.864;-2.246;2023-12-29T14:34:05;7.05;;;2.50;;
80332;SDS011;69652;51.864;-2.246;2023-12-29T14:36:32;10.10;;;2.20;;
80332;SDS011;69652;51.864;-2.246;2023-12-29T14:38:58;7.32;;;2.63;;
80332;SDS011;69652;51.864;-2.246;2023-12-29T14:41:24;5.88;;;2.67;;
80332;SDS011;69652;51.864;-2.246;2023-12-29T14:43:51;10.98;;;5.50;;
80332;SDS011;69652;51.864;-2.246;2023-12-29T14:46:17;9.00;;;2.83;;
80332;SDS011;69652;51.864;-2.246;2023-12-29T14:48:43;12.40;;;6.18;;